createdAt,value
2023-01-29T00:02:13.442Z,26.63
2023-01-29T00:05:27.468Z,27.42
2023-01-29T00:08:30.710Z,23.83
2023-01-29T00:11:35.807Z,28.15
2023-01-29T00:14:38.460Z,24.88
2023-01-29T00:17:41.040Z,24.98
2023-01-29T00:20:45.210Z,23.17
2023-01-29T00:23:48.640Z,28.23
2023-01-29T00:26:52.673Z,25.40
2023-01-29T00:30:12.914Z,27.98
2023-01-29T00:33:16.195Z,23.58
2023-01-29T00:36:20.617Z,24.40
2023-01-29T00:39:33.671Z,25.13
2023-01-29T00:43:03.279Z,23.13
2023-01-29T00:46:06.586Z,26.42
2023-01-29T00:49:09.785Z,24.40
2023-01-29T00:52:24.429Z,25.40
2023-01-29T00:55:27.078Z,23.47
2023-01-29T00:58:34.326Z,24.83
2023-01-29T01:01:56.018Z,23.27
2023-01-29T01:04:59.049Z,23.80
2023-01-29T01:08:01.696Z,26.67
2023-01-29T01:11:06.407Z,28.13
2023-01-29T01:14:10.398Z,25.10
2023-01-29T01:17:13.181Z,24.95
2023-01-29T01:20:16.179Z,24.30
2023-01-29T01:23:19.668Z,24.02
2023-01-29T01:26:22.331Z,22.80
2023-01-29T01:29:26.381Z,22.80
2023-01-29T01:32:29.013Z,20.38
2023-01-29T01:35:31.628Z,23.25
2023-01-29T01:38:34.273Z,27.00
2023-01-29T01:41:36.976Z,24.03
2023-01-29T01:44:54.646Z,21.42
2023-01-29T01:48:02.410Z,23.05
2023-01-29T01:51:06.513Z,23.90
2023-01-29T01:54:12.864Z,24.75
2023-01-29T01:57:18.644Z,26.37
2023-01-29T02:00:26.107Z,24.23
2023-01-29T02:03:51.872Z,26.95
2023-01-29T02:07:14.709Z,22.65
2023-01-29T02:10:19.341Z,22.60
2023-01-29T02:13:23.366Z,26.37
2023-01-29T02:16:27.693Z,22.25
2023-01-29T02:19:45.538Z,21.52
2023-01-29T02:23:16.898Z,22.73
2023-01-29T02:26:40.970Z,24.00
2023-01-29T02:29:56.945Z,25.13
2023-01-29T02:33:09.304Z,26.00
2023-01-29T02:36:23.077Z,23.75
2023-01-29T02:39:34.149Z,23.40
2023-01-29T02:42:44.533Z,21.00
2023-01-29T02:45:53.252Z,20.60
2023-01-29T02:49:01.948Z,24.13
2023-01-29T02:52:09.798Z,20.33
2023-01-29T02:55:16.294Z,20.35
2023-01-29T02:58:29.181Z,16.73
2023-01-29T03:01:39.912Z,21.13
2023-01-29T03:04:47.591Z,18.70
2023-01-29T03:07:55.957Z,21.95
2023-01-29T03:11:14.352Z,19.30
2023-01-29T03:14:24.174Z,18.05
2023-01-29T03:17:37.337Z,21.27
2023-01-29T03:20:48.198Z,22.70
2023-01-29T03:24:12.930Z,18.75
2023-01-29T03:27:38.928Z,19.08
2023-01-29T03:31:06.419Z,22.95
2023-01-29T03:34:34.652Z,23.90
2023-01-29T03:37:43.687Z,26.17
2023-01-29T03:40:53.073Z,21.75
2023-01-29T03:44:07.142Z,19.75
2023-01-29T03:47:18.036Z,17.92
2023-01-29T03:50:34.409Z,20.37
2023-01-29T03:53:44.129Z,25.17
2023-01-29T03:57:15.517Z,17.65
2023-01-29T04:00:27.857Z,21.25
2023-01-29T04:03:40.091Z,18.92
2023-01-29T04:06:47.656Z,17.97
2023-01-29T04:09:53.738Z,16.85
2023-01-29T04:13:01.930Z,18.17
2023-01-29T04:16:10.613Z,16.67
2023-01-29T04:19:39.734Z,16.15
2023-01-29T04:22:49.558Z,19.87
2023-01-29T04:26:06.883Z,20.98
2023-01-29T04:29:22.031Z,18.15
2023-01-29T04:32:32.555Z,17.55
2023-01-29T04:35:48.627Z,21.73
2023-01-29T04:39:02.787Z,24.90
2023-01-29T04:42:13.576Z,20.08
2023-01-29T04:45:23.181Z,22.17
2023-01-29T04:48:32.250Z,17.45
2023-01-29T04:51:45.174Z,14.75
2023-01-29T04:55:01.488Z,20.67
2023-01-29T04:58:11.581Z,18.60
2023-01-29T05:01:17.635Z,19.02
2023-01-29T05:04:21.777Z,16.05
2023-01-29T05:07:26.530Z,18.40
2023-01-29T05:10:30.900Z,21.10
2023-01-29T05:13:39.397Z,18.88
2023-01-29T05:16:45.649Z,17.55
2023-01-29T05:19:48.955Z,18.75
2023-01-29T05:22:53.845Z,17.85
2023-01-29T05:25:58.185Z,21.17
2023-01-29T05:29:00.916Z,16.92
2023-01-29T05:32:04.103Z,18.02
2023-01-29T05:35:07.571Z,17.65
2023-01-29T05:38:10.471Z,18.52
2023-01-29T05:41:18.051Z,19.77
2023-01-29T05:44:20.679Z,20.35
2023-01-29T05:47:23.431Z,17.15
2023-01-29T05:50:27.202Z,19.70
2023-01-29T05:53:33.358Z,21.98
2023-01-29T05:56:37.297Z,21.30
2023-01-29T05:59:40.047Z,27.65
2023-01-29T06:02:42.919Z,17.45
2023-01-29T06:05:45.647Z,16.88
2023-01-29T06:08:48.601Z,18.52
2023-01-29T06:11:52.682Z,20.53
2023-01-29T06:14:55.621Z,20.35
2023-01-29T06:17:58.280Z,19.90
2023-01-29T06:21:02.603Z,19.08
2023-01-29T06:24:06.047Z,17.20
2023-01-29T06:27:10.035Z,22.50
2023-01-29T06:30:13.693Z,18.10
2023-01-29T06:33:16.369Z,19.00
2023-01-29T06:36:19.121Z,18.58
2023-01-29T06:39:21.810Z,18.00
2023-01-29T06:42:28.091Z,16.03
2023-01-29T06:45:30.966Z,15.52
2023-01-29T06:48:33.941Z,23.33
2023-01-29T06:51:36.622Z,20.45
2023-01-29T06:54:39.311Z,21.73
2023-01-29T06:57:43.328Z,19.07
2023-01-29T07:00:47.161Z,18.70
2023-01-29T07:03:50.901Z,17.67
2023-01-29T07:06:53.665Z,18.70
2023-01-29T07:09:56.298Z,17.10
2023-01-29T07:13:00.704Z,53.37
2023-01-29T07:16:04.857Z,37.33
2023-01-29T07:19:07.589Z,24.20
2023-01-29T07:22:10.223Z,22.90
2023-01-29T07:25:12.984Z,21.77
2023-01-29T07:28:17.375Z,20.10
2023-01-29T07:31:20.287Z,21.40
2023-01-29T07:34:23.073Z,20.00
2023-01-29T07:37:25.707Z,22.17
2023-01-29T07:40:29.096Z,22.98
2023-01-29T07:43:33.516Z,19.40
2023-01-29T07:46:36.403Z,17.40
2023-01-29T07:49:39.152Z,25.95
2023-01-29T07:52:41.746Z,26.83
2023-01-29T07:55:45.409Z,28.98
2023-01-29T07:58:49.536Z,23.23
2023-01-29T08:01:52.304Z,20.52
2023-01-29T08:04:54.961Z,21.90
2023-01-29T08:08:06.632Z,19.77
2023-01-29T08:11:09.935Z,21.55
2023-01-29T08:14:14.021Z,21.20
2023-01-29T08:17:16.791Z,20.70
2023-01-29T08:20:20.978Z,19.83
2023-01-29T08:23:23.890Z,24.35
2023-01-29T08:26:27.395Z,26.30
2023-01-29T08:29:31.654Z,23.90
2023-01-29T08:32:34.434Z,19.63
2023-01-29T08:35:37.374Z,17.33
2023-01-29T08:38:40.228Z,18.25
2023-01-29T08:41:42.865Z,21.02
2023-01-29T08:44:46.909Z,24.97
2023-01-29T08:47:50.217Z,21.80
2023-01-29T08:50:53.013Z,21.05
2023-01-29T08:53:55.835Z,17.38
2023-01-29T08:56:58.595Z,18.60
2023-01-29T09:00:03.887Z,20.93
2023-01-29T09:03:08.048Z,23.77
2023-01-29T09:06:12.618Z,23.75
2023-01-29T09:09:15.567Z,27.27
2023-01-29T09:12:18.241Z,22.75
2023-01-29T09:15:22.801Z,20.77
2023-01-29T09:18:25.550Z,18.67
2023-01-29T09:21:28.398Z,26.90
2023-01-29T09:24:32.633Z,26.20
2023-01-29T09:27:35.329Z,22.55
2023-01-29T09:30:40.322Z,21.43
2023-01-29T09:33:43.218Z,21.60
2023-01-29T09:36:46.327Z,26.38
2023-01-29T09:39:49.189Z,41.40
2023-01-29T09:42:57.806Z,25.08
2023-01-29T09:46:06.403Z,23.33
2023-01-29T09:49:15.656Z,25.45
2023-01-29T09:52:23.678Z,28.27
2023-01-29T09:55:28.732Z,32.00
2023-01-29T09:58:35.793Z,27.83
2023-01-29T10:01:49.860Z,34.13
2023-01-29T10:05:13.254Z,52.40
2023-01-29T10:08:37.033Z,29.40
2023-01-29T10:11:52.676Z,34.30
2023-01-29T10:15:03.380Z,21.80
2023-01-29T10:18:33.837Z,20.07
2023-01-29T10:22:02.179Z,25.52
2023-01-29T10:25:10.393Z,18.38
2023-01-29T10:28:18.551Z,20.73
2023-01-29T10:31:28.097Z,21.63
2023-01-29T10:34:39.014Z,24.23
2023-01-29T10:37:42.813Z,20.67
2023-01-29T10:40:50.538Z,21.52
2023-01-29T10:44:05.155Z,26.73
2023-01-29T10:47:21.324Z,28.65
2023-01-29T10:50:39.400Z,24.93
2023-01-29T10:53:57.442Z,23.77
2023-01-29T10:57:11.231Z,21.25
2023-01-29T11:00:21.583Z,22.90
2023-01-29T11:03:28.641Z,44.97
2023-01-29T11:06:35.074Z,71.37
2023-01-29T11:09:43.950Z,41.08
2023-01-29T11:12:46.684Z,52.10
2023-01-29T11:16:10.016Z,33.30
2023-01-29T11:19:13.342Z,29.90
2023-01-29T11:22:20.108Z,36.40
2023-01-29T11:25:23.138Z,31.30
2023-01-29T11:28:37.262Z,37.53
2023-01-29T11:31:40.359Z,36.97
2023-01-29T11:35:05.154Z,31.98
2023-01-29T11:38:18.950Z,40.03
2023-01-29T11:41:24.329Z,31.58
2023-01-29T11:44:29.588Z,31.48
2023-01-29T11:47:32.770Z,32.83
2023-01-29T11:50:35.735Z,28.85
2023-01-29T11:53:43.424Z,27.00
2023-01-29T11:56:47.956Z,27.42
2023-01-29T11:59:52.509Z,27.27
2023-01-29T12:02:57.896Z,31.33
2023-01-29T12:06:04.532Z,31.35
2023-01-29T12:09:16.852Z,30.90
2023-01-29T12:12:32.223Z,32.63
2023-01-29T12:15:35.340Z,30.60
2023-01-29T12:18:41.684Z,28.00
2023-01-29T12:21:50.953Z,40.55
2023-01-29T12:24:59.392Z,34.50
2023-01-29T12:28:10.984Z,28.92
2023-01-29T12:31:27.473Z,45.75
2023-01-29T12:34:43.427Z,42.85
2023-01-29T12:37:55.575Z,33.95
2023-01-29T12:41:08.003Z,31.80
2023-01-29T12:44:15.763Z,32.40
2023-01-29T12:47:23.491Z,30.75
2023-01-29T12:50:29.251Z,28.95
2023-01-29T12:53:35.180Z,31.20
2023-01-29T12:56:43.600Z,36.63
2023-01-29T12:59:49.885Z,41.08
2023-01-29T13:02:59.724Z,40.78
2023-01-29T13:06:07.319Z,35.63
2023-01-29T13:09:16.938Z,31.02
2023-01-29T13:12:23.186Z,33.40
2023-01-29T13:15:30.213Z,33.33
2023-01-29T13:18:44.200Z,30.00
2023-01-29T13:21:48.244Z,25.08
2023-01-29T13:25:03.644Z,30.80
2023-01-29T13:28:17.073Z,37.03
2023-01-29T13:31:28.930Z,42.17
2023-01-29T13:34:34.920Z,30.67
2023-01-29T13:37:42.691Z,33.20
2023-01-29T13:40:50.203Z,32.58
2023-01-29T13:43:54.391Z,34.10
2023-01-29T13:46:59.427Z,36.67
2023-01-29T13:50:07.686Z,32.97
2023-01-29T13:53:22.675Z,31.52
2023-01-29T13:56:41.654Z,35.15
2023-01-29T13:59:55.287Z,36.67
2023-01-29T14:03:45.033Z,43.60
2023-01-29T14:06:55.349Z,58.22
2023-01-29T14:10:14.389Z,63.33
2023-01-29T14:13:34.135Z,45.55
2023-01-29T14:16:38.700Z,45.87
2023-01-29T14:20:15.444Z,40.25
2023-01-29T14:23:36.019Z,48.42
2023-01-29T14:26:45.641Z,41.08
2023-01-29T14:29:48.600Z,43.95
2023-01-29T14:32:52.786Z,47.87
2023-01-29T14:35:58.183Z,72.30
2023-01-29T14:39:01.403Z,50.60
2023-01-29T14:42:15.412Z,55.38
2023-01-29T14:45:38.219Z,49.28
2023-01-29T14:48:48.686Z,63.80
2023-01-29T14:51:52.213Z,78.63
2023-01-29T14:54:59.692Z,84.03
2023-01-29T14:58:03.721Z,59.58
2023-01-29T15:01:21.038Z,50.97
2023-01-29T15:04:28.186Z,35.20
2023-01-29T15:07:35.671Z,52.53
2023-01-29T15:10:44.930Z,54.92
2023-01-29T15:13:53.727Z,49.67
2023-01-29T15:17:06.267Z,52.45
2023-01-29T15:20:30.281Z,53.17
2023-01-29T15:23:34.321Z,51.35
2023-01-29T15:26:37.047Z,40.17
2023-01-29T15:29:41.743Z,40.35
2023-01-29T15:32:46.040Z,44.03
2023-01-29T15:36:06.692Z,64.90
2023-01-29T15:39:18.900Z,49.65
2023-01-29T15:42:23.530Z,34.22
2023-01-29T15:45:30.954Z,49.17
2023-01-29T15:48:37.670Z,31.55
2023-01-29T15:51:44.055Z,38.63
2023-01-29T15:54:47.748Z,41.03
2023-01-29T15:57:51.078Z,48.25
2023-01-29T16:00:55.719Z,35.47
2023-01-29T16:04:03.315Z,32.28
2023-01-29T16:07:07.670Z,24.47
2023-01-29T16:10:17.994Z,26.70
2023-01-29T16:13:24.331Z,43.40
2023-01-29T16:16:28.150Z,38.25
2023-01-29T16:19:31.059Z,29.67
2023-01-29T16:22:37.570Z,29.20
2023-01-29T16:25:40.920Z,36.80
2023-01-29T16:28:45.260Z,30.38
2023-01-29T16:31:51.596Z,37.70
2023-01-29T16:34:57.533Z,31.58
2023-01-29T16:38:04.929Z,29.07
2023-01-29T16:41:15.565Z,27.05
2023-01-29T16:44:38.392Z,41.95
2023-01-29T16:47:41.694Z,46.13
2023-01-29T16:50:54.659Z,63.17
2023-01-29T16:54:02.362Z,47.60
2023-01-29T16:57:05.363Z,52.03
2023-01-29T17:00:20.065Z,65.72
2023-01-29T17:03:27.524Z,73.00
2023-01-29T17:06:32.661Z,63.90
2023-01-29T17:09:38.462Z,64.50
2023-01-29T17:12:41.528Z,66.70
2023-01-29T17:15:46.749Z,50.63
2023-01-29T17:18:50.274Z,51.03
2023-01-29T17:21:53.083Z,45.95
2023-01-29T17:24:57.625Z,27.93
2023-01-29T17:28:01.765Z,29.33
2023-01-29T17:31:07.008Z,24.45
2023-01-29T17:34:12.793Z,27.40
2023-01-29T17:37:16.449Z,26.23
2023-01-29T17:40:31.724Z,28.23
2023-01-29T17:43:35.124Z,22.80
2023-01-29T17:46:38.149Z,21.80
2023-01-29T17:49:42.127Z,24.70
2023-01-29T17:52:45.419Z,21.63
2023-01-29T17:55:50.514Z,21.20
2023-01-29T17:58:53.300Z,20.55
2023-01-29T18:01:56.765Z,23.92
2023-01-29T18:04:59.941Z,20.30
2023-01-29T18:08:03.094Z,20.23
2023-01-29T18:11:10.850Z,19.93
2023-01-29T18:14:14.735Z,23.02
2023-01-29T18:17:22.294Z,50.50
2023-01-29T18:20:28.160Z,50.10
2023-01-29T18:23:31.404Z,57.35
2023-01-29T18:26:36.183Z,47.17
2023-01-29T18:29:39.222Z,28.15
2023-01-29T18:32:42.096Z,21.83
2023-01-29T18:35:45.197Z,21.65
2023-01-29T18:38:48.613Z,17.70
2023-01-29T18:41:52.939Z,18.57
2023-01-29T18:44:55.981Z,19.90
2023-01-29T18:47:58.798Z,21.17
2023-01-29T18:51:01.639Z,28.10
2023-01-29T18:54:05.201Z,46.60
2023-01-29T18:57:14.429Z,24.30
2023-01-29T19:00:32.784Z,34.53
2023-01-29T19:03:36.352Z,27.02
2023-01-29T19:06:39.360Z,20.05
2023-01-29T19:09:45.611Z,24.80
2023-01-29T19:12:50.353Z,21.47
2023-01-29T19:15:54.198Z,17.40
2023-01-29T19:18:58.568Z,19.73
2023-01-29T19:22:02.405Z,26.52
2023-01-29T19:25:06.802Z,22.98
2023-01-29T19:28:11.514Z,27.53
2023-01-29T19:31:14.889Z,21.63
2023-01-29T19:34:18.312Z,27.30
2023-01-29T19:37:21.498Z,31.58
2023-01-29T19:40:25.582Z,23.30
2023-01-29T19:43:33.109Z,19.27
2023-01-29T19:46:36.633Z,37.53
2023-01-29T19:49:40.668Z,34.25
2023-01-29T19:52:52.022Z,25.95
2023-01-29T19:55:59.769Z,33.88
2023-01-29T19:59:07.248Z,28.33
2023-01-29T20:02:10.848Z,23.13
2023-01-29T20:05:17.242Z,23.70
2023-01-29T20:08:22.298Z,27.38
2023-01-29T20:11:25.410Z,31.75
2023-01-29T20:14:31.056Z,28.67
2023-01-29T20:17:34.134Z,27.13
2023-01-29T20:20:39.808Z,23.20
2023-01-29T20:23:45.677Z,20.70
2023-01-29T20:26:49.377Z,24.02
2023-01-29T20:29:53.849Z,24.47
2023-01-29T20:32:57.104Z,28.58
2023-01-29T20:36:02.138Z,25.92
2023-01-29T20:39:04.797Z,27.95
2023-01-29T20:42:07.503Z,28.67
2023-01-29T20:45:12.331Z,39.27
2023-01-29T20:48:15.286Z,36.28
2023-01-29T20:51:18.903Z,28.90
2023-01-29T20:54:21.627Z,50.20
2023-01-29T20:57:24.817Z,52.70
2023-01-29T21:00:28.878Z,53.87
2023-01-29T21:03:31.864Z,47.20
2023-01-29T21:06:34.746Z,43.03
2023-01-29T21:09:37.798Z,40.00
2023-01-29T21:12:41.493Z,38.28
2023-01-29T21:15:45.955Z,36.93
2023-01-29T21:18:48.627Z,45.42
2023-01-29T21:21:51.520Z,46.33
2023-01-29T21:24:54.439Z,46.10
2023-01-29T21:27:57.910Z,41.65
2023-01-29T21:31:07.271Z,31.97
2023-01-29T21:34:10.491Z,30.75
2023-01-29T21:37:13.202Z,29.92
2023-01-29T21:40:16.736Z,33.15
2023-01-29T21:43:19.774Z,28.55
2023-01-29T21:46:23.769Z,24.23
2023-01-29T21:49:26.815Z,19.40
2023-01-29T21:52:29.506Z,24.70
2023-01-29T21:55:32.779Z,25.27
2023-01-29T21:58:35.708Z,23.67
2023-01-29T22:01:39.779Z,21.57
2023-01-29T22:04:42.836Z,19.90
2023-01-29T22:07:45.555Z,19.95
2023-01-29T22:10:48.290Z,21.15
2023-01-29T22:13:51.014Z,20.63
2023-01-29T22:16:55.002Z,20.40
2023-01-29T22:20:07.778Z,22.33
2023-01-29T22:23:12.539Z,21.10
2023-01-29T22:26:15.772Z,20.65
2023-01-29T22:29:19.581Z,23.58
2023-01-29T22:32:23.658Z,25.10
2023-01-29T22:35:26.360Z,22.58
2023-01-29T22:38:29.485Z,17.73
2023-01-29T22:41:33.709Z,21.63
2023-01-29T22:44:36.455Z,23.83
2023-01-29T22:47:40.617Z,23.57
2023-01-29T22:50:52.976Z,22.08
2023-01-29T22:53:57.078Z,20.75
2023-01-29T22:56:59.695Z,24.23
2023-01-29T23:00:02.738Z,23.50
2023-01-29T23:03:07.516Z,24.97
2023-01-29T23:06:10.461Z,22.92
2023-01-29T23:09:13.075Z,26.05
2023-01-29T23:12:16.131Z,25.73
2023-01-29T23:15:18.782Z,25.50
2023-01-29T23:18:22.736Z,27.30
2023-01-29T23:21:26.208Z,22.98
2023-01-29T23:24:28.932Z,25.13
2023-01-29T23:27:31.537Z,23.65
2023-01-29T23:30:34.258Z,23.50
2023-01-29T23:33:38.897Z,25.53
2023-01-29T23:36:41.841Z,23.92
2023-01-29T23:39:44.740Z,28.17
2023-01-29T23:42:48.420Z,26.52
2023-01-29T23:45:51.151Z,25.08
2023-01-29T23:48:55.178Z,22.63
2023-01-29T23:51:57.999Z,29.02
2023-01-29T23:55:00.733Z,27.75
2023-01-29T23:58:03.719Z,26.20
